Time;durP1;ratioP1;P1;durP2;ratioP2;P2;SDS_P1;SDS_P2;PMS_P1;PMS_P2;Temp;Humidity;BMP_temperature;BMP_pressure;BME280_temperature;BME280_humidity;BME280_pressure;Samples;Min_cycle;Max_cycle;Signal;HPM_P1;HPM_P2
2023/05/09 00:02:07;;;;;;;20.50;9.70;;;;;;;3.54;100.00;99771.28;5160729;27;20074;-55
2023/05/09 00:04:34;;;;;;;22.48;10.73;;;;;;;3.48;100.00;99761.63;5160771;27;20054;-62
2023/05/09 00:07:00;;;;;;;23.75;10.07;;;;;;;3.43;100.00;99749.00;5160354;27;20073;-57
2023/05/09 00:09:26;;;;;;;21.38;9.98;;;;;;;3.39;100.00;99736.34;5160709;27;20053;-62
2023/05/09 00:11:52;;;;;;;20.73;9.93;;;;;;;3.35;100.00;99729.94;5160402;27;20106;-56
2023/05/09 00:14:18;;;;;;;17.58;9.45;;;;;;;3.38;100.00;99735.56;5160450;27;20050;-56
2023/05/09 00:16:45;;;;;;;25.67;11.02;;;;;;;3.33;100.00;99724.81;5160156;27;20134;-54
2023/05/09 00:19:11;;;;;;;27.98;10.68;;;;;;;3.28;100.00;99714.09;5160693;27;20057;-63
2023/05/09 00:21:37;;;;;;;21.15;10.05;;;;;;;3.23;100.00;99717.72;5160568;27;20043;-65
2023/05/09 00:24:04;;;;;;;22.05;10.52;;;;;;;3.22;100.00;99705.25;5160266;27;20058;-56
2023/05/09 00:26:30;;;;;;;22.02;10.45;;;;;;;3.19;100.00;99699.63;5160348;27;20315;-56
2023/05/09 00:28:56;;;;;;;23.48;10.80;;;;;;;3.16;100.00;99692.91;5160379;27;20078;-59
2023/05/09 00:31:22;;;;;;;20.55;10.25;;;;;;;3.09;100.00;99686.28;5160284;27;20149;-56
2023/05/09 00:33:48;;;;;;;21.75;10.70;;;;;;;3.06;100.00;99684.97;5159274;27;20062;-59
2023/05/09 00:36:15;;;;;;;18.95;9.65;;;;;;;3.00;100.00;99676.19;5160202;27;20452;-56
2023/05/09 00:38:41;;;;;;;26.50;10.40;;;;;;;3.02;100.00;99679.38;5159948;27;20141;-60
2023/05/09 00:41:07;;;;;;;25.20;10.98;;;;;;;2.97;100.00;99681.41;5160137;27;20047;-58
2023/05/09 00:43:33;;;;;;;22.58;10.50;;;;;;;2.99;100.00;99668.34;5159679;27;20404;-60
2023/05/09 00:45:59;;;;;;;21.10;10.43;;;;;;;2.98;100.00;99666.75;5160303;27;20142;-59
2023/05/09 00:48:25;;;;;;;20.98;9.70;;;;;;;2.88;100.00;99672.38;5159634;27;20133;-64
2023/05/09 00:50:51;;;;;;;22.02;10.75;;;;;;;2.91;100.00;99677.19;5159537;27;20050;-58
2023/05/09 00:53:17;;;;;;;20.42;10.48;;;;;;;2.83;100.00;99659.72;5159771;27;20431;-55
2023/05/09 00:55:43;;;;;;;29.90;11.85;;;;;;;2.88;100.00;99664.25;5159755;27;20065;-59
2023/05/09 00:58:10;;;;;;;21.75;11.32;;;;;;;2.79;100.00;99664.13;5159788;27;20058;-62
2023/05/09 01:00:36;;;;;;;22.83;11.15;;;;;;;2.76;100.00;99660.13;5159675;27;20053;-59
2023/05/09 01:03:02;;;;;;;20.63;10.90;;;;;;;2.84;100.00;99669.47;5159865;27;20051;-62
2023/05/09 01:05:37;;;;;;;21.02;10.45;;;;;;;2.76;100.00;99668.25;5160186;27;20047;-56
2023/05/09 01:08:09;;;;;;;21.45;9.75;;;;;;;2.72;100.00;99664.53;5161914;27;20047;-55
2023/05/09 01:10:48;;;;;;;24.20;10.60;;;;;;;2.57;100.00;99660.22;5159509;27;20106;-55
2023/05/09 01:13:22;;;;;;;20.95;10.40;;;;;;;2.50;100.00;99662.53;5159664;27;20141;-61
2023/05/09 01:15:53;;;;;;;27.65;10.52;;;;;;;2.54;100.00;99658.13;5159547;27;20059;-55
2023/05/09 01:18:29;;;;;;;21.00;10.38;;;;;;;2.47;100.00;99676.66;5159132;27;20476;-55
2023/05/09 01:21:02;;;;;;;21.95;10.93;;;;;;;2.51;100.00;99671.44;5159469;27;20047;-58
2023/05/09 01:23:53;;;;;;;22.85;11.15;;;;;;;2.52;100.00;99668.44;5159256;27;20051;-59
2023/05/09 01:26:24;;;;;;;25.50;11.27;;;;;;;2.47;100.00;99670.44;5159531;27;20344;-63
2023/05/09 01:29:15;;;;;;;26.65;10.95;;;;;;;2.35;100.00;99671.72;5158973;27;20095;-56
2023/05/09 01:31:44;;;;;;;17.73;10.02;;;;;;;2.28;100.00;99684.81;5159149;27;20059;-56
2023/05/09 01:34:13;;;;;;;25.67;11.48;;;;;;;2.28;100.00;99684.81;5159204;27;20086;-58
2023/05/09 01:36:41;;;;;;;22.73;11.48;;;;;;;2.30;100.00;99681.81;5159257;27;20053;-54
2023/05/09 01:39:12;;;;;;;28.40;11.68;;;;;;;2.31;100.00;99681.53;5159194;27;20133;-64
2023/05/09 01:41:38;;;;;;;26.27;11.85;;;;;;;2.28;100.00;99684.81;5158930;27;20057;-64
2023/05/09 01:44:09;;;;;;;25.42;10.93;;;;;;;2.31;100.00;99689.63;5159197;27;20055;-58
2023/05/09 01:46:36;;;;;;;24.38;11.32;;;;;;;2.30;100.00;99693.47;5157578;27;20053;-56
2023/05/09 01:49:03;;;;;;;28.13;11.02;;;;;;;2.23;100.00;99689.50;5159186;27;20089;-55
2023/05/09 01:51:30;;;;;;;34.60;12.23;;;;;;;2.20;100.00;99701.75;5158612;27;20141;-63
2023/05/09 01:53:58;;;;;;;26.52;11.77;;;;;;;2.15;100.00;99701.03;5158795;27;20137;-63
2023/05/09 01:56:25;;;;;;;24.10;9.98;;;;;;;2.11;100.00;99692.69;5158621;27;20379;-55
2023/05/09 01:58:53;;;;;;;22.73;10.65;;;;;;;2.22;100.00;99696.03;5158716;27;20064;-59
2023/05/09 02:01:19;;;;;;;21.65;10.57;;;;;;;2.23;100.00;99708.44;5158657;27;20404;-56
2023/05/09 02:03:49;;;;;;;30.92;12.35;;;;;;;2.20;100.00;99690.09;5158395;27;20057;-53
2023/05/09 02:06:17;;;;;;;20.17;9.45;;;;;;;2.12;100.00;99697.78;5158773;27;20082;-58
2023/05/09 02:08:43;;;;;;;23.63;10.57;;;;;;;2.14;100.00;99700.22;5158459;27;20134;-58
2023/05/09 02:11:10;;;;;;;27.60;10.77;;;;;;;2.08;100.00;99690.56;5158683;27;20050;-53
2023/05/09 02:13:37;;;;;;;19.95;9.73;;;;;;;2.08;100.00;99690.56;5158150;27;20192;-64
2023/05/09 02:16:03;;;;;;;17.80;9.90;;;;;;;2.08;100.00;99694.09;5158636;27;20082;-56
2023/05/09 02:18:31;;;;;;;20.90;10.07;;;;;;;2.09;100.00;99689.47;5158309;27;20051;-53
2023/05/09 02:20:58;;;;;;;23.77;10.23;;;;;;;2.05;100.00;99694.66;5158468;27;20126;-63
2023/05/09 02:23:23;;;;;;;17.50;9.70;;;;;;;2.06;100.00;99695.47;5158390;27;20129;-59
2023/05/09 02:25:50;;;;;;;18.45;9.93;;;;;;;2.04;100.00;99690.38;5158122;27;20319;-61
2023/05/09 02:28:18;;;;;;;17.63;9.43;;;;;;;2.04;100.00;99690.38;5158452;27;20057;-57
2023/05/09 02:30:46;;;;;;;18.40;9.85;;;;;;;2.01;100.00;99695.56;5158232;27;20106;-57
2023/05/09 02:33:13;;;;;;;21.27;10.30;;;;;;;2.02;100.00;99695.25;5158375;27;20429;-59
2023/05/09 02:35:43;;;;;;;23.17;10.40;;;;;;;2.07;100.00;99714.13;5158049;27;20194;-59
2023/05/09 02:38:10;;;;;;;19.75;9.63;;;;;;;2.00;100.00;99712.88;5158406;27;20064;-59
2023/05/09 02:40:36;;;;;;;23.90;10.35;;;;;;;1.87;100.00;99717.16;5158019;27;20051;-56
2023/05/09 02:43:03;;;;;;;21.85;9.98;;;;;;;1.96;100.00;99733.50;5158688;27;20192;-54
2023/05/09 02:45:29;;;;;;;25.23;11.02;;;;;;;1.93;100.00;99736.78;5157937;27;20351;-58
2023/05/09 02:47:55;;;;;;;17.98;9.57;;;;;;;2.19;100.00;99726.38;5157789;27;20046;-54
2023/05/09 02:50:21;;;;;;;17.27;10.45;;;;;;;2.55;100.00;99724.66;5157843;27;20429;-56
2023/05/09 02:52:46;;;;;;;19.05;10.07;;;;;;;3.05;100.00;99694.22;5158024;27;20053;-62
2023/05/09 02:55:13;;;;;;;17.58;9.35;;;;;;;3.66;100.00;99665.78;5157985;27;20093;-63
2023/05/09 02:57:39;;;;;;;18.30;10.07;;;;;;;4.03;100.00;99661.13;5159452;27;20126;-64
2023/05/09 03:00:08;;;;;;;31.95;11.27;;;;;;;4.24;100.00;99697.50;5161601;27;20145;-63
2023/05/09 03:02:34;;;;;;;17.85;9.82;;;;;;;4.55;100.00;99737.47;5161165;27;20057;-63
2023/05/09 03:05:00;;;;;;;21.15;9.50;;;;;;;5.07;100.00;99783.94;5161596;27;20054;-64
2023/05/09 03:07:26;;;;;;;25.75;10.57;;;;;;;5.15;100.00;99866.59;5161380;27;20047;-59
2023/05/09 03:09:52;;;;;;;21.85;9.50;;;;;;;5.46;100.00;99910.09;5161708;27;20365;-58
2023/05/09 03:12:18;;;;;;;19.58;9.75;;;;;;;5.81;100.00;99953.81;5161281;27;20127;-57
2023/05/09 03:14:44;;;;;;;19.20;9.85;;;;;;;6.38;100.00;99994.72;5161527;27;20464;-56
2023/05/09 03:17:10;;;;;;;19.23;9.15;;;;;;;6.62;100.00;100059.66;5161140;27;20051;-56
2023/05/09 03:19:36;;;;;;;16.27;8.73;;;;;;;6.83;100.00;100087.94;5161358;27;20141;-55
2023/05/09 03:22:02;;;;;;;17.20;8.98;;;;;;;7.04;100.00;100111.88;5161390;27;20074;-55
2023/05/09 03:24:28;;;;;;;14.85;8.00;;;;;;;7.28;100.00;100125.88;5161066;27;20141;-55
2023/05/09 03:26:54;;;;;;;17.90;8.15;;;;;;;7.30;100.00;100144.66;5161396;27;20046;-59
2023/05/09 03:29:20;;;;;;;19.42;9.05;;;;;;;7.78;100.00;100160.09;5160963;27;20046;-64
2023/05/09 03:31:46;;;;;;;19.25;9.02;;;;;;;8.04;100.00;100184.63;5161192;27;20400;-62
2023/05/09 03:34:13;;;;;;;18.92;10.18;;;;;;;8.25;100.00;100214.81;5160773;27;20150;-62
2023/05/09 03:36:40;;;;;;;17.13;8.15;;;;;;;8.46;100.00;100220.44;5161158;27;20408;-63
2023/05/09 03:39:07;;;;;;;20.65;9.57;;;;;;;8.93;100.00;100223.22;5161115;27;20061;-63
2023/05/09 03:41:34;;;;;;;16.45;8.77;;;;;;;9.06;100.00;100233.09;5161501;27;20099;-60
2023/05/09 03:44:00;;;;;;;15.77;8.68;;;;;;;9.23;100.00;100248.66;5160702;27;20089;-62
2023/05/09 03:46:27;;;;;;;17.42;8.70;;;;;;;9.22;100.00;100257.97;5160924;27;20133;-59
2023/05/09 03:48:53;;;;;;;23.15;9.30;;;;;;;9.47;100.00;100263.69;5160941;27;20057;-63
2023/05/09 03:51:19;;;;;;;21.52;9.93;;;;;;;9.66;100.00;100264.03;5160608;27;20391;-59
2023/05/09 03:53:45;;;;;;;16.92;9.55;;;;;;;9.94;100.00;100278.03;5160838;27;20061;-58
2023/05/09 03:56:11;;;;;;;16.20;8.95;;;;;;;10.28;100.00;100285.19;5160479;27;20050;-59
2023/05/09 03:58:37;;;;;;;23.15;10.90;;;;;;;10.69;100.00;100290.94;5160721;27;20047;-56
2023/05/09 04:01:03;;;;;;;16.10;8.77;;;;;;;10.84;99.80;100293.88;5160783;27;20106;-55
2023/05/09 04:03:30;;;;;;;16.90;8.60;;;;;;;11.15;97.56;100298.03;5160889;27;20360;-63
2023/05/09 04:05:57;;;;;;;17.88;9.18;;;;;;;11.14;98.73;100301.13;5160658;27;20058;-58
2023/05/09 04:08:23;;;;;;;21.13;9.95;;;;;;;11.38;93.50;100306.63;5160106;27;20047;-66
2023/05/09 04:10:49;;;;;;;19.77;9.50;;;;;;;12.03;86.09;100323.25;5159948;27;20416;-59
2023/05/09 04:13:15;;;;;;;14.15;9.50;;;;;;;11.89;86.54;100320.84;5160675;27;20137;-59
2023/05/09 04:15:41;;;;;;;17.15;9.40;;;;;;;12.19;87.06;100315.84;5160121;27;20043;-64
2023/05/09 04:18:07;;;;;;;17.90;9.55;;;;;;;12.53;85.38;100326.63;5160134;27;20134;-59
2023/05/09 04:20:34;;;;;;;14.75;9.18;;;;;;;12.55;85.80;100332.59;5160169;27;20069;-61
2023/05/09 04:22:59;;;;;;;19.50;10.48;;;;;;;12.87;82.65;100339.00;5160071;27;20053;-57
2023/05/09 04:25:26;;;;;;;17.38;9.13;;;;;;;13.15;79.27;100339.75;5160437;27;20141;-59
2023/05/09 04:27:51;;;;;;;12.20;8.48;;;;;;;13.29;79.48;100346.81;5160126;27;20050;-64
2023/05/09 04:30:17;;;;;;;15.13;8.98;;;;;;;13.95;75.55;100342.53;5160491;27;20103;-65
2023/05/09 04:32:44;;;;;;;14.95;9.38;;;;;;;14.29;72.83;100355.50;5159959;27;20051;-65
2023/05/09 04:35:10;;;;;;;20.65;8.30;;;;;;;14.56;68.35;100367.56;5160248;27;20050;-57
2023/05/09 04:37:37;;;;;;;18.02;8.48;;;;;;;14.94;68.43;100367.91;5161453;27;20053;-57
2023/05/09 04:40:04;;;;;;;19.20;8.02;;;;;;;15.05;67.81;100369.69;5160664;27;20146;-60
2023/05/09 04:42:32;;;;;;;15.98;13.23;;;;;;;15.48;70.40;100355.84;5159866;27;20047;-59
2023/05/09 04:44:58;;;;;;;16.02;8.88;;;;;;;15.65;65.42;100368.38;5159920;27;20065;-65
2023/05/09 04:47:24;;;;;;;10.85;7.15;;;;;;;16.25;60.00;100382.38;5159658;27;20050;-66
2023/05/09 04:49:50;;;;;;;14.75;6.18;;;;;;;16.50;57.61;100381.94;5159898;27;20082;-59
2023/05/09 04:52:16;;;;;;;18.85;8.73;;;;;;;16.78;60.27;100376.75;5160010;27;20042;-63
2023/05/09 04:54:43;;;;;;;7.57;5.00;;;;;;;16.22;56.98;100372.84;5159885;27;20097;-63
2023/05/09 04:57:09;;;;;;;11.45;6.30;;;;;;;17.45;55.60;100377.88;5159817;27;20497;-63
2023/05/09 04:59:35;;;;;;;9.68;5.50;;;;;;;17.80;53.40;100389.31;5159654;27;20043;-59
2023/05/09 05:02:01;;;;;;;10.57;6.35;;;;;;;17.90;53.95;100387.78;5159785;27;20042;-55
2023/05/09 05:04:28;;;;;;;7.40;5.18;;;;;;;17.92;51.60;100381.84;5159497;27;20050;-57
2023/05/09 05:06:54;;;;;;;5.82;4.90;;;;;;;18.02;50.73;100381.13;5159784;27;20137;-63
2023/05/09 05:09:20;;;;;;;9.50;5.22;;;;;;;17.39;50.24;100394.03;5159372;27;20141;-63
2023/05/09 05:11:46;;;;;;;11.63;5.18;;;;;;;18.61;50.54;100379.09;5159785;27;20057;-59
2023/05/09 05:14:12;;;;;;;6.22;4.55;;;;;;;18.14;49.73;100388.34;5159255;27;20137;-57
2023/05/09 05:16:38;;;;;;;6.68;4.22;;;;;;;18.60;49.35;100379.50;5159460;27;20049;-60
2023/05/09 05:19:04;;;;;;;5.05;3.97;;;;;;;19.11;48.10;100376.53;5159489;27;20047;-56
2023/05/09 05:21:30;;;;;;;6.60;4.13;;;;;;;19.31;48.04;100373.38;5159139;27;20373;-57
2023/05/09 05:23:56;;;;;;;8.15;3.70;;;;;;;19.37;46.70;100371.81;5159215;27;20232;-60
2023/05/09 05:26:22;;;;;;;6.60;3.70;;;;;;;19.21;47.43;100374.97;5159076;27;20146;-63
2023/05/09 05:28:54;;;;;;;6.20;3.47;;;;;;;19.48;46.32;100369.81;5159404;27;20325;-60
2023/05/09 05:31:20;;;;;;;6.47;3.13;;;;;;;19.15;45.54;100370.97;5159090;27;20110;-57
2023/05/09 05:33:45;;;;;;;5.30;3.67;;;;;;;19.98;46.95;100367.06;5159287;27;20342;-55
2023/05/09 05:36:11;;;;;;;4.65;3.10;;;;;;;20.30;46.43;100369.78;5158876;27;20424;-61
2023/05/09 05:38:37;;;;;;;3.70;2.90;;;;;;;20.15;45.64;100368.22;5159329;27;20046;-63
2023/05/09 05:41:03;;;;;;;7.90;3.10;;;;;;;20.19;44.97;100367.03;5158745;27;20430;-62
2023/05/09 05:43:29;;;;;;;4.07;3.15;;;;;;;20.11;44.30;100370.22;5159033;27;20415;-61
2023/05/09 05:45:56;;;;;;;5.40;3.38;;;;;;;20.88;44.42;100370.41;5158968;27;20206;-54
2023/05/09 05:48:22;;;;;;;4.70;3.20;;;;;;;20.80;42.46;100363.28;5158926;27;20157;-57
2023/05/09 05:50:48;;;;;;;8.25;2.65;;;;;;;20.86;43.02;100365.25;5158973;27;20055;-55
2023/05/09 05:53:14;;;;;;;2.90;2.53;;;;;;;20.52;43.07;100364.16;5158769;27;20153;-57
2023/05/09 05:55:40;;;;;;;4.20;2.80;;;;;;;20.99;43.01;100370.34;5158926;27;20139;-57
2023/05/09 05:58:06;;;;;;;4.88;2.72;;;;;;;21.34;42.83;100363.75;5158808;27;20082;-62
2023/05/09 06:00:31;;;;;;;3.13;2.70;;;;;;;21.11;43.01;100367.88;5158957;27;20047;-62
2023/05/09 06:02:58;;;;;;;5.00;2.50;;;;;;;20.68;42.62;100361.72;5158478;27;20142;-61
2023/05/09 06:05:24;;;;;;;3.53;2.65;;;;;;;21.21;42.45;100355.06;5158777;27;20137;-61
2023/05/09 06:07:50;;;;;;;5.10;3.60;;;;;;;20.52;42.63;100364.16;5158416;27;20141;-62
2023/05/09 06:10:16;;;;;;;4.05;2.60;;;;;;;22.11;41.47;100357.16;5158647;27;20050;-58
2023/05/09 06:12:42;;;;;;;3.22;2.30;;;;;;;22.06;42.01;100359.19;5158310;27;20050;-56
2023/05/09 06:15:08;;;;;;;6.60;2.53;;;;;;;21.89;41.34;100365.72;5158396;27;20149;-57
2023/05/09 06:17:34;;;;;;;8.55;3.03;;;;;;;22.02;41.82;100352.81;5158727;27;20050;-62
2023/05/09 06:20:00;;;;;;;3.95;3.20;;;;;;;22.15;40.80;100361.50;5158473;27;20070;-57
2023/05/09 06:22:26;;;;;;;5.75;3.25;;;;;;;22.40;40.58;100355.66;5158535;27;20047;-62
2023/05/09 06:24:53;;;;;;;3.88;3.33;;;;;;;21.77;40.08;100361.44;5158418;27;20112;-59
2023/05/09 06:27:18;;;;;;;5.38;3.05;;;;;;;22.03;40.83;100364.81;5158782;27;20058;-57
2023/05/09 06:29:44;;;;;;;3.35;2.60;;;;;;;21.80;40.59;100366.22;5158179;27;20051;-60
2023/05/09 06:32:10;;;;;;;5.35;3.40;;;;;;;22.47;40.78;100360.38;5157726;27;20091;-63
2023/05/09 06:34:36;;;;;;;3.72;3.17;;;;;;;22.63;40.77;100357.00;5157984;27;20046;-64
2023/05/09 06:37:03;;;;;;;6.20;2.30;;;;;;;22.65;40.60;100362.94;5158404;27;20379;-63
2023/05/09 06:39:29;;;;;;;2.95;2.65;;;;;;;22.13;40.39;100360.31;5158018;27;20199;-63
2023/05/09 06:41:55;;;;;;;4.75;3.20;;;;;;;22.28;40.30;100353.41;5158054;27;20382;-63
2023/05/09 06:44:20;;;;;;;4.53;3.05;;;;;;;22.79;40.04;100357.97;5158170;27;20078;-59
2023/05/09 06:46:46;;;;;;;5.07;3.05;;;;;;;22.67;39.88;100352.94;5157950;27;20438;-57
2023/05/09 06:49:13;;;;;;;3.40;2.42;;;;;;;22.86;40.18;100347.88;5158142;27;20043;-57
2023/05/09 06:51:38;;;;;;;5.50;3.47;;;;;;;22.69;39.94;100358.09;5157686;27;20050;-63
2023/05/09 06:54:05;;;;;;;3.20;2.53;;;;;;;22.37;39.06;100353.69;5158018;27;20089;-63
2023/05/09 06:56:31;;;;;;;4.60;2.90;;;;;;;22.75;39.27;100342.44;5157804;27;20152;-62
2023/05/09 06:58:57;;;;;;;3.00;2.50;;;;;;;22.64;39.90;100341.81;5158305;27;20050;-62
2023/05/09 07:01:23;;;;;;;3.38;2.70;;;;;;;22.52;38.12;100352.31;5157734;27;20145;-58
2023/05/09 07:03:49;;;;;;;6.05;3.10;;;;;;;22.43;38.88;100342.88;5158113;27;20329;-56
2023/05/09 07:06:15;;;;;;;5.47;3.03;;;;;;;21.64;38.89;100343.63;5157595;27;20093;-56
2023/05/09 07:08:41;;;;;;;4.00;2.72;;;;;;;20.50;40.13;100335.91;5158138;27;20043;-58
2023/05/09 07:11:07;;;;;;;4.18;2.97;;;;;;;21.47;39.54;100339.00;5157492;27;20058;-61
2023/05/09 07:13:33;;;;;;;5.28;2.50;;;;;;;22.18;39.15;100335.53;5157730;27;20141;-58
2023/05/09 07:15:59;;;;;;;3.03;2.50;;;;;;;22.21;39.27;100331.13;5158005;27;20089;-62
2023/05/09 07:18:25;;;;;;;3.10;2.80;;;;;;;19.22;40.70;100321.72;5157744;27;20323;-60
2023/05/09 07:20:51;;;;;;;4.15;2.60;;;;;;;20.14;40.45;100330.44;5157379;27;20054;-61
2023/05/09 07:23:17;;;;;;;2.80;2.55;;;;;;;19.05;41.62;100328.06;5157376;27;20047;-63
2023/05/09 07:25:44;;;;;;;8.25;2.20;;;;;;;18.41;42.13;100331.41;5157731;27;20055;-56
2023/05/09 07:28:11;;;;;;;8.70;2.45;;;;;;;19.05;41.71;100320.50;5157268;27;20420;-54
2023/05/09 07:30:37;;;;;;;4.00;2.85;;;;;;;20.47;41.48;100309.66;5157748;27;20051;-55
2023/05/09 07:33:03;;;;;;;3.83;2.63;;;;;;;21.28;40.80;100315.97;5157301;27;20142;-61
2023/05/09 07:35:29;;;;;;;3.28;2.25;;;;;;;21.42;39.65;100314.31;5157589;27;20047;-62
2023/05/09 07:37:55;;;;;;;3.38;2.70;;;;;;;20.34;40.98;100309.31;5157202;27;20069;-62
2023/05/09 07:40:21;;;;;;;5.25;2.58;;;;;;;20.79;40.30;100306.75;5157643;27;20093;-62
2023/05/09 07:42:48;;;;;;;3.20;2.30;;;;;;;21.70;40.24;100310.50;5157645;27;20133;-59
2023/05/09 07:45:15;;;;;;;6.28;3.20;;;;;;;22.25;40.08;100309.53;5160650;27;20408;-58
2023/05/09 07:47:41;;;;;;;2.75;2.25;;;;;;;21.06;40.71;100309.78;5161236;27;20133;-56
2023/05/09 07:50:08;;;;;;;5.30;2.30;;;;;;;20.65;41.24;100304.81;5160856;27;20133;-57
2023/05/09 07:52:34;;;;;;;4.05;2.42;;;;;;;19.68;41.39;100301.50;5161096;27;20137;-59
2023/05/09 07:55:00;;;;;;;3.05;1.63;;;;;;;20.77;40.29;100306.34;5160886;27;20141;-61
2023/05/09 07:57:26;;;;;;;2.17;1.90;;;;;;;19.58;40.21;100305.06;5162702;27;20106;-64
2023/05/09 07:59:51;;;;;;;3.03;2.00;;;;;;;18.27;41.48;100309.94;5161810;27;20054;-59
2023/05/09 08:02:19;;;;;;;3.05;2.15;;;;;;;18.94;41.26;100291.13;5161119;27;20089;-60
2023/05/09 08:04:47;;;;;;;3.35;2.05;;;;;;;17.84;42.48;100301.34;5160433;27;20054;-61
2023/05/09 08:07:13;;;;;;;5.70;1.90;;;;;;;19.25;41.71;100304.25;5160811;27;20051;-59
2023/05/09 08:09:39;;;;;;;4.43;1.90;;;;;;;20.61;41.34;100292.09;5160323;27;20133;-59
2023/05/09 08:12:05;;;;;;;3.88;2.13;;;;;;;21.06;40.31;100298.63;5160537;27;20107;-56
2023/05/09 08:14:31;;;;;;;6.60;1.90;;;;;;;21.54;39.85;100299.88;5160402;27;20061;-63
2023/05/09 08:16:57;;;;;;;5.30;2.60;;;;;;;20.53;39.81;100288.56;5160133;27;20050;-63
2023/05/09 08:19:24;;;;;;;3.95;2.20;;;;;;;19.95;39.81;100287.94;5160284;27;20054;-59
2023/05/09 08:21:50;;;;;;;2.70;1.90;;;;;;;21.47;39.29;100283.97;5160284;27;20051;-60
2023/05/09 08:24:16;;;;;;;2.65;2.10;;;;;;;22.27;39.23;100276.41;5160657;27;20057;-57
2023/05/09 08:26:43;;;;;;;2.90;1.95;;;;;;;21.98;37.80;100271.09;5160112;27;20046;-55
2023/05/09 08:29:10;;;;;;;3.22;2.72;;;;;;;22.14;37.98;100275.31;5160250;27;20377;-62
2023/05/09 08:31:36;;;;;;;3.22;2.40;;;;;;;22.95;37.96;100267.09;5159986;27;20069;-60
2023/05/09 08:34:02;;;;;;;3.65;2.78;;;;;;;21.88;38.87;100266.44;5159855;27;20132;-60
2023/05/09 08:36:28;;;;;;;3.70;2.90;;;;;;;21.22;40.04;100269.41;5159809;27;20083;-63
2023/05/09 08:38:54;;;;;;;3.42;2.60;;;;;;;20.03;39.95;100268.47;5160017;27;20042;-64
2023/05/09 08:41:25;;;;;;;4.97;2.67;;;;;;;18.61;40.67;100262.44;5160067;27;20518;-62
2023/05/09 08:43:52;;;;;;;2.53;2.03;;;;;;;19.72;39.50;100263.34;5159980;27;20080;-62
2023/05/09 08:46:26;;;;;;;3.10;2.33;;;;;;;21.07;39.88;100261.16;5159794;27;20078;-58
2023/05/09 08:48:53;;;;;;;3.50;2.17;;;;;;;20.39;39.75;100252.38;5159624;27;20492;-58
2023/05/09 08:51:20;;;;;;;3.35;2.45;;;;;;;19.69;40.31;100247.47;5160032;27;20137;-63
2023/05/09 08:53:47;;;;;;;3.53;2.25;;;;;;;22.02;39.04;100251.50;5159455;27;20412;-58
2023/05/09 08:56:13;;;;;;;2.55;2.35;;;;;;;21.39;38.94;100251.75;5159425;27;20046;-57
2023/05/09 08:58:39;;;;;;;3.63;2.35;;;;;;;20.61;38.94;100255.88;5159537;27;20412;-55
2023/05/09 09:01:06;;;;;;;4.43;2.67;;;;;;;20.14;39.46;100247.72;5160036;27;20060;-59
2023/05/09 09:03:32;;;;;;;4.45;2.15;;;;;;;20.31;39.72;100239.69;5159505;27;20046;-64
2023/05/09 09:06:00;;;;;;;10.32;2.00;;;;;;;22.17;38.93;100239.00;5159847;27;20065;-58
2023/05/09 09:08:27;;;;;;;5.75;2.53;;;;;;;22.71;38.61;100230.69;5159617;27;20153;-61
2023/05/09 09:10:53;;;;;;;5.25;2.78;;;;;;;21.63;38.43;100246.38;5159538;27;20457;-62
2023/05/09 09:13:21;;;;;;;4.78;2.70;;;;;;;22.31;38.24;100240.81;5159650;27;20102;-63
2023/05/09 09:15:48;;;;;;;6.28;2.58;;;;;;;23.09;38.58;100233.34;5159166;27;20145;-56
2023/05/09 09:18:20;;;;;;;9.75;2.75;;;;;;;22.82;38.53;100232.53;5159445;27;20125;-63
2023/05/09 09:20:50;;;;;;;4.32;2.90;;;;;;;21.26;38.95;100234.72;5159239;27;20106;-64
2023/05/09 09:23:19;;;;;;;3.78;2.58;;;;;;;21.85;38.23;100231.75;5159674;27;20050;-60
2023/05/09 09:25:45;;;;;;;3.92;2.83;;;;;;;21.05;38.49;100224.53;5159144;27;20103;-53
2023/05/09 09:28:12;;;;;;;3.15;2.70;;;;;;;22.52;38.92;100218.16;5159493;27;20057;-57
2023/05/09 09:30:43;;;;;;;2.95;2.75;;;;;;;22.74;38.03;100220.66;5158970;27;20137;-63
2023/05/09 09:33:08;;;;;;;4.03;2.80;;;;;;;20.24;38.90;100220.25;5159159;27;20069;-56
2023/05/09 09:35:38;;;;;;;3.53;2.63;;;;;;;21.97;38.72;100212.91;5159023;27;20392;-56
2023/05/09 09:38:05;;;;;;;2.85;2.63;;;;;;;21.55;38.41;100212.94;5159034;27;20047;-57
2023/05/09 09:40:31;;;;;;;3.80;2.35;;;;;;;22.31;38.31;100221.28;5159049;27;20137;-63
2023/05/09 09:42:57;;;;;;;4.97;2.75;;;;;;;22.76;37.42;100216.25;5158816;27;20137;-60
2023/05/09 09:45:24;;;;;;;3.72;1.90;;;;;;;22.69;38.04;100213.56;5159141;27;20095;-63
2023/05/09 09:47:50;;;;;;;4.55;2.00;;;;;;;21.96;38.09;100214.91;5158720;27;20051;-62
2023/05/09 09:50:18;;;;;;;2.55;2.20;;;;;;;22.21;38.09;100211.03;5159137;27;20093;-55
2023/05/09 09:52:49;;;;;;;2.58;2.38;;;;;;;22.16;38.61;100203.91;5158668;27;20062;-58
2023/05/09 09:55:15;;;;;;;3.97;2.53;;;;;;;22.58;38.68;100203.75;5159013;27;20419;-57
2023/05/09 09:57:43;;;;;;;3.50;2.75;;;;;;;21.88;38.52;100204.22;5158467;27;20065;-58
2023/05/09 10:00:10;;;;;;;3.63;2.90;;;;;;;21.32;38.63;100207.94;5158780;27;20058;-62
2023/05/09 10:02:47;;;;;;;3.20;2.00;;;;;;;21.49;39.26;100203.47;5158799;27;20061;-55
2023/05/09 10:05:18;;;;;;;4.78;3.10;;;;;;;21.08;39.16;100201.41;5158590;27;20057;-58
2023/05/09 10:07:44;;;;;;;2.97;2.42;;;;;;;22.00;39.44;100201.69;5157729;27;20043;-58
2023/05/09 10:10:10;;;;;;;3.65;2.03;;;;;;;20.34;39.59;100197.13;5158523;27;20051;-57
2023/05/09 10:12:36;;;;;;;5.60;2.38;;;;;;;21.58;39.66;100197.38;5158764;27;20323;-60
2023/05/09 10:15:06;;;;;;;3.67;3.38;;;;;;;20.42;39.93;100187.50;5158587;27;20061;-61
2023/05/09 10:17:32;;;;;;;5.45;3.13;;;;;;;20.75;38.96;100186.13;5158581;27;20468;-54
2023/05/09 10:20:03;;;;;;;3.78;2.80;;;;;;;20.30;40.35;100180.44;5158193;27;20141;-63
2023/05/09 10:22:31;;;;;;;4.13;3.17;;;;;;;20.31;40.33;100176.44;5158690;27;20099;-57
2023/05/09 10:25:02;;;;;;;2.97;2.67;;;;;;;20.68;39.60;100178.63;5158417;27;20065;-63
2023/05/09 10:27:31;;;;;;;3.50;3.00;;;;;;;20.76;39.76;100178.56;5158377;27;20046;-63
2023/05/09 10:30:03;;;;;;;5.45;2.67;;;;;;;21.71;39.71;100181.69;5158410;27;20297;-57
2023/05/09 10:32:37;;;;;;;3.60;3.30;;;;;;;21.60;38.42;100179.03;5158032;27;20427;-63
2023/05/09 10:35:07;;;;;;;3.08;2.70;;;;;;;21.89;38.39;100170.31;5158211;27;20414;-61
2023/05/09 10:37:33;;;;;;;4.43;3.10;;;;;;;22.47;39.18;100178.75;5158133;27;20145;-60
2023/05/09 10:40:02;;;;;;;4.97;2.97;;;;;;;21.89;38.97;100163.94;5158407;27;20113;-62
2023/05/09 10:42:29;;;;;;;2.75;2.45;;;;;;;20.72;39.34;100163.88;5157992;27;20335;-60
2023/05/09 10:44:56;;;;;;;2.95;2.25;;;;;;;20.98;39.61;100160.47;5158284;27;20452;-64
2023/05/09 10:47:23;;;;;;;4.60;2.50;;;;;;;20.86;39.21;100166.56;5158137;27;20046;-63
2023/05/09 10:49:49;;;;;;;4.13;3.30;;;;;;;19.63;40.05;100159.25;5157946;27;20065;-60
2023/05/09 10:52:16;;;;;;;5.82;3.33;;;;;;;18.92;41.09;100146.25;5158158;27;20138;-61
2023/05/09 10:54:42;;;;;;;2.90;2.60;;;;;;;18.82;41.89;100142.28;5157760;27;20061;-56
2023/05/09 10:57:08;;;;;;;3.60;2.50;;;;;;;17.50;41.83;100148.22;5158155;27;20131;-57
2023/05/09 10:59:36;;;;;;;7.20;2.75;;;;;;;18.28;42.23;100136.63;5157877;27;20047;-60
2023/05/09 11:02:03;;;;;;;4.68;2.92;;;;;;;18.15;42.47;100148.50;5158223;27;20046;-56
2023/05/09 11:04:30;;;;;;;3.17;2.40;;;;;;;18.52;41.43;100143.41;5157687;27;20054;-55
2023/05/09 11:06:58;;;;;;;3.92;2.80;;;;;;;17.80;42.60;100134.13;5158041;27;20047;-59
2023/05/09 11:09:31;;;;;;;3.70;2.63;;;;;;;18.41;41.97;100139.84;5157656;27;20326;-60
2023/05/09 11:12:00;;;;;;;3.30;2.22;;;;;;;17.09;41.62;100128.16;5158239;27;20051;-57
2023/05/09 11:14:37;;;;;;;4.15;2.40;;;;;;;16.90;42.32;100132.00;5157949;27;20051;-58
2023/05/09 11:17:53;;;;;;;7.93;2.70;;;;;;;16.90;42.54;100127.25;5158220;27;20054;-59
2023/05/09 11:20:27;;;;;;;3.00;2.30;;;;;;;17.60;42.22;100119.75;5161510;27;20043;-56
2023/05/09 11:22:56;;;;;;;5.20;2.90;;;;;;;17.61;41.68;100113.00;5161198;27;20146;-60